sensor_id;sensor_type;location;lat;lon;timestamp;pressure;altitude;pressure_sealevel;temperature;humidity
15678;BME280;7939;50.814;6.368;2023-03-04T00:01:21;100848.53;;;7.13;55.08
15678;BME280;7939;50.814;6.368;2023-03-04T00:03:48;100857.88;;;7.14;56.06
15678;BME280;7939;50.814;6.368;2023-03-04T00:06:15;100857.88;;;7.14;56.02
15678;BME280;7939;50.814;6.368;2023-03-04T00:08:42;100861.25;;;7.13;55.42
15678;BME280;7939;50.814;6.368;2023-03-04T00:11:08;100848.53;;;7.13;56.13
15678;BME280;7939;50.814;6.368;2023-03-04T00:13:35;100850.25;;;7.14;55.55
15678;BME280;7939;50.814;6.368;2023-03-04T00:16:03;100854.53;;;7.15;55.36
15678;BME280;7939;50.814;6.368;2023-03-04T00:18:30;100857.06;;;7.15;55.20
15678;BME280;7939;50.814;6.368;2023-03-04T00:20:57;100846.91;;;7.15;56.02
15678;BME280;7939;50.814;6.368;2023-03-04T00:23:24;100861.28;;;7.14;55.53
15678;BME280;7939;50.814;6.368;2023-03-04T00:25:51;100850.25;;;7.14;55.41
15678;BME280;7939;50.814;6.368;2023-03-04T00:28:17;100850.25;;;7.14;56.05
15678;BME280;7939;50.814;6.368;2023-03-04T00:30:44;100852.84;;;7.15;56.15
15678;BME280;7939;50.814;6.368;2023-03-04T00:33:12;100846.06;;;7.16;55.36
15678;BME280;7939;50.814;6.368;2023-03-04T00:35:39;100841.81;;;7.15;56.37
15678;BME280;7939;50.814;6.368;2023-03-04T00:38:05;100846.06;;;7.16;56.14
15678;BME280;7939;50.814;6.368;2023-03-04T00:40:32;100842.69;;;7.15;56.30
15678;BME280;7939;50.814;6.368;2023-03-04T00:42:58;100847.84;;;7.17;55.58
15678;BME280;7939;50.814;6.368;2023-03-04T00:45:25;100842.69;;;7.15;55.55
15678;BME280;7939;50.814;6.368;2023-03-04T00:47:52;100846.06;;;7.16;56.03
15678;BME280;7939;50.814;6.368;2023-03-04T00:50:19;100835.06;;;7.15;56.22
15678;BME280;7939;50.814;6.368;2023-03-04T00:52:46;100836.78;;;7.16;56.22
15678;BME280;7939;50.814;6.368;2023-03-04T00:55:13;100835.97;;;7.17;56.28
15678;BME280;7939;50.814;6.368;2023-03-04T00:57:39;100835.13;;;7.17;56.06
15678;BME280;7939;50.814;6.368;2023-03-04T01:00:07;100836.78;;;7.16;56.35
15678;BME280;7939;50.814;6.368;2023-03-04T01:02:34;100842.78;;;7.18;56.13
15678;BME280;7939;50.814;6.368;2023-03-04T01:05:00;100840.19;;;7.17;55.70
15678;BME280;7939;50.814;6.368;2023-03-04T01:07:28;100839.31;;;7.16;55.74
15678;BME280;7939;50.814;6.368;2023-03-04T01:09:55;100839.31;;;7.16;55.73
15678;BME280;7939;50.814;6.368;2023-03-04T01:12:21;100843.66;;;7.19;55.69
15678;BME280;7939;50.814;6.368;2023-03-04T01:14:48;100839.38;;;7.18;55.67
15678;BME280;7939;50.814;6.368;2023-03-04T01:17:14;100846.16;;;7.17;56.53
15678;BME280;7939;50.814;6.368;2023-03-04T01:19:41;100840.19;;;7.17;56.15
15678;BME280;7939;50.814;6.368;2023-03-04T01:22:07;100843.66;;;7.19;55.68
15678;BME280;7939;50.814;6.368;2023-03-04T01:24:36;100836.84;;;7.18;55.53
15678;BME280;7939;50.814;6.368;2023-03-04T01:27:03;100829.22;;;7.18;56.24
15678;BME280;7939;50.814;6.368;2023-03-04T01:29:29;100832.66;;;7.20;55.79
15678;BME280;7939;50.814;6.368;2023-03-04T01:31:56;100830.13;;;7.20;56.46
15678;BME280;7939;50.814;6.368;2023-03-04T01:34:23;100826.75;;;7.21;56.79
15678;BME280;7939;50.814;6.368;2023-03-04T01:36:49;100825.06;;;7.21;55.67
15678;BME280;7939;50.814;6.368;2023-03-04T01:39:16;100822.53;;;7.21;55.75
15678;BME280;7939;50.814;6.368;2023-03-04T01:41:44;100823.34;;;7.20;55.81
15678;BME280;7939;50.814;6.368;2023-03-04T01:44:11;100818.25;;;7.20;56.55
15678;BME280;7939;50.814;6.368;2023-03-04T01:46:40;100815.72;;;7.20;56.42
15678;BME280;7939;50.814;6.368;2023-03-04T01:49:12;100821.66;;;7.21;56.80
15678;BME280;7939;50.814;6.368;2023-03-04T01:51:41;100809.81;;;7.21;56.19
15678;BME280;7939;50.814;6.368;2023-03-04T01:54:08;100806.41;;;7.21;56.66
15678;BME280;7939;50.814;6.368;2023-03-04T01:56:37;100809.00;;;7.22;55.68
15678;BME280;7939;50.814;6.368;2023-03-04T01:59:12;100804.72;;;7.21;56.07
15678;BME280;7939;50.814;6.368;2023-03-04T02:01:40;100792.03;;;7.21;56.52
15678;BME280;7939;50.814;6.368;2023-03-04T02:04:08;100799.66;;;7.21;55.97
15678;BME280;7939;50.814;6.368;2023-03-04T02:06:36;100795.38;;;7.20;55.95
15678;BME280;7939;50.814;6.368;2023-03-04T02:09:04;100781.94;;;7.23;56.66
15678;BME280;7939;50.814;6.368;2023-03-04T02:11:31;100790.41;;;7.23;56.03
15678;BME280;7939;50.814;6.368;2023-03-04T02:13:59;100775.09;;;7.22;55.87
15678;BME280;7939;50.814;6.368;2023-03-04T02:16:27;100777.69;;;7.23;56.13
15678;BME280;7939;50.814;6.368;2023-03-04T02:18:54;100781.09;;;7.24;56.34
15678;BME280;7939;50.814;6.368;2023-03-04T02:21:23;100772.63;;;7.23;56.30
15678;BME280;7939;50.814;6.368;2023-03-04T02:23:57;100770.94;;;7.24;56.15
15678;BME280;7939;50.814;6.368;2023-03-04T02:26:26;100772.63;;;7.23;56.71
15678;BME280;7939;50.814;6.368;2023-03-04T02:28:55;100779.41;;;7.24;56.80
15678;BME280;7939;50.814;6.368;2023-03-04T02:31:25;100775.19;;;7.25;55.89
15678;BME280;7939;50.814;6.368;2023-03-04T02:33:54;100770.06;;;7.23;56.84
15678;BME280;7939;50.814;6.368;2023-03-04T02:36:22;100776.06;;;7.25;56.77
15678;BME280;7939;50.814;6.368;2023-03-04T02:38:49;100767.56;;;7.25;56.49
15678;BME280;7939;50.814;6.368;2023-03-04T02:41:19;100774.38;;;7.26;56.15
15678;BME280;7939;50.814;6.368;2023-03-04T02:43:53;100769.25;;;7.24;55.92
15678;BME280;7939;50.814;6.368;2023-03-04T02:46:20;100764.16;;;7.24;56.51
15678;BME280;7939;50.814;6.368;2023-03-04T02:48:47;100762.47;;;7.25;55.90
15678;BME280;7939;50.814;6.368;2023-03-04T02:51:14;100759.13;;;7.26;55.83
15678;BME280;7939;50.814;6.368;2023-03-04T02:53:42;100760.75;;;7.24;56.96
15678;BME280;7939;50.814;6.368;2023-03-04T02:56:09;100759.94;;;7.25;56.54
15678;BME280;7939;50.814;6.368;2023-03-04T02:58:35;100765.88;;;7.25;56.97
15678;BME280;7939;50.814;6.368;2023-03-04T03:01:04;100768.47;;;7.27;56.97
15678;BME280;7939;50.814;6.368;2023-03-04T03:03:31;100759.97;;;7.26;56.96
15678;BME280;7939;50.814;6.368;2023-03-04T03:05:58;100753.22;;;7.27;56.41
15678;BME280;7939;50.814;6.368;2023-03-04T03:08:24;100752.38;;;7.28;57.12
15678;BME280;7939;50.814;6.368;2023-03-04T03:10:51;100754.06;;;7.27;56.10
15678;BME280;7939;50.814;6.368;2023-03-04T03:13:18;100756.63;;;7.27;56.38
15678;BME280;7939;50.814;6.368;2023-03-04T03:15:45;100747.31;;;7.28;56.78
15678;BME280;7939;50.814;6.368;2023-03-04T03:18:13;100755.78;;;7.28;56.32
15678;BME280;7939;50.814;6.368;2023-03-04T03:20:39;100748.16;;;7.28;57.03
15678;BME280;7939;50.814;6.368;2023-03-04T03:23:06;100744.75;;;7.28;56.26
15678;BME280;7939;50.814;6.368;2023-03-04T03:25:32;100749.91;;;7.29;56.16
15678;BME280;7939;50.814;6.368;2023-03-04T03:27:59;100742.22;;;7.28;56.25
15678;BME280;7939;50.814;6.368;2023-03-04T03:30:26;100745.69;;;7.30;56.57
15678;BME280;7939;50.814;6.368;2023-03-04T03:32:53;100747.38;;;7.29;56.72
15678;BME280;7939;50.814;6.368;2023-03-04T03:35:21;100730.38;;;7.28;56.40
15678;BME280;7939;50.814;6.368;2023-03-04T03:37:47;100735.56;;;7.32;56.46
15678;BME280;7939;50.814;6.368;2023-03-04T03:40:14;100734.69;;;7.31;57.17
15678;BME280;7939;50.814;6.368;2023-03-04T03:42:41;100733.00;;;7.32;56.36
15678;BME280;7939;50.814;6.368;2023-03-04T03:45:08;100723.66;;;7.30;56.17
15678;BME280;7939;50.814;6.368;2023-03-04T03:47:35;100729.56;;;7.29;55.95
15678;BME280;7939;50.814;6.368;2023-03-04T03:50:03;100727.94;;;7.32;57.09
15678;BME280;7939;50.814;6.368;2023-03-04T03:52:31;100731.34;;;7.32;55.96
15678;BME280;7939;50.814;6.368;2023-03-04T03:54:57;100729.56;;;7.29;56.94
15678;BME280;7939;50.814;6.368;2023-03-04T03:57:26;100731.34;;;7.32;56.88
15678;BME280;7939;50.814;6.368;2023-03-04T03:59:52;100744.03;;;7.32;56.56
15678;BME280;7939;50.814;6.368;2023-03-04T04:02:19;100729.66;;;7.33;56.35
15678;BME280;7939;50.814;6.368;2023-03-04T04:04:46;100734.72;;;7.33;56.96
15678;BME280;7939;50.814;6.368;2023-03-04T04:07:13;100733.00;;;7.32;56.93
15678;BME280;7939;50.814;6.368;2023-03-04T04:09:41;100723.75;;;7.34;55.99
15678;BME280;7939;50.814;6.368;2023-03-04T04:12:08;100733.91;;;7.34;56.09
15678;BME280;7939;50.814;6.368;2023-03-04T04:14:36;100733.88;;;7.32;56.54
15678;BME280;7939;50.814;6.368;2023-03-04T04:17:03;100724.56;;;7.33;56.07
15678;BME280;7939;50.814;6.368;2023-03-04T04:19:29;100728.78;;;7.32;57.15
15678;BME280;7939;50.814;6.368;2023-03-04T04:21:56;100726.25;;;7.32;56.18
15678;BME280;7939;50.814;6.368;2023-03-04T04:24:23;100732.22;;;7.34;56.02
15678;BME280;7939;50.814;6.368;2023-03-04T04:26:51;100724.56;;;7.33;56.44
15678;BME280;7939;50.814;6.368;2023-03-04T04:29:18;100725.41;;;7.33;56.12
15678;BME280;7939;50.814;6.368;2023-03-04T04:31:44;100728.81;;;7.34;56.14
15678;BME280;7939;50.814;6.368;2023-03-04T04:34:11;100723.78;;;7.35;56.23
15678;BME280;7939;50.814;6.368;2023-03-04T04:36:38;100722.06;;;7.34;57.17
15678;BME280;7939;50.814;6.368;2023-03-04T04:39:04;100726.31;;;7.35;57.25
15678;BME280;7939;50.814;6.368;2023-03-04T04:41:39;100729.69;;;7.34;56.01
15678;BME280;7939;50.814;6.368;2023-03-04T04:44:09;100731.41;;;7.35;56.72
15678;BME280;7939;50.814;6.368;2023-03-04T04:46:36;100720.38;;;7.35;56.38
15678;BME280;7939;50.814;6.368;2023-03-04T04:49:04;100732.28;;;7.36;56.15
15678;BME280;7939;50.814;6.368;2023-03-04T04:51:31;100732.31;;;7.37;57.04
15678;BME280;7939;50.814;6.368;2023-03-04T04:53:57;100728.06;;;7.36;56.82
15678;BME280;7939;50.814;6.368;2023-03-04T04:56:25;100728.94;;;7.37;56.85
15678;BME280;7939;50.814;6.368;2023-03-04T04:58:53;100730.63;;;7.36;56.55
15678;BME280;7939;50.814;6.368;2023-03-04T05:01:21;100739.97;;;7.37;57.20
15678;BME280;7939;50.814;6.368;2023-03-04T05:03:48;100739.97;;;7.37;56.14
15678;BME280;7939;50.814;6.368;2023-03-04T05:06:18;100730.66;;;7.38;56.62
15678;BME280;7939;50.814;6.368;2023-03-04T05:08:45;100739.16;;;7.40;57.25
15678;BME280;7939;50.814;6.368;2023-03-04T05:11:12;100740.84;;;7.39;56.13
15678;BME280;7939;50.814;6.368;2023-03-04T05:13:39;100745.09;;;7.39;56.40
15678;BME280;7939;50.814;6.368;2023-03-04T05:16:07;100747.63;;;7.39;57.15
15678;BME280;7939;50.814;6.368;2023-03-04T05:18:35;100745.13;;;7.40;57.05
15678;BME280;7939;50.814;6.368;2023-03-04T05:21:03;100744.25;;;7.40;56.29
15678;BME280;7939;50.814;6.368;2023-03-04T05:23:31;100746.78;;;7.40;56.71
15678;BME280;7939;50.814;6.368;2023-03-04T05:25:58;100742.56;;;7.40;56.15
15678;BME280;7939;50.814;6.368;2023-03-04T05:28:25;100741.75;;;7.41;56.54
15678;BME280;7939;50.814;6.368;2023-03-04T05:30:52;100740.03;;;7.40;57.12
15678;BME280;7939;50.814;6.368;2023-03-04T05:33:19;100738.34;;;7.41;56.16
15678;BME280;7939;50.814;6.368;2023-03-04T05:35:48;100741.75;;;7.41;57.27
15678;BME280;7939;50.814;6.368;2023-03-04T05:38:16;100734.91;;;7.39;56.09
15678;BME280;7939;50.814;6.368;2023-03-04T05:40:44;100746.06;;;7.44;56.43
15678;BME280;7939;50.814;6.368;2023-03-04T05:43:11;100743.50;;;7.42;57.14
15678;BME280;7939;50.814;6.368;2023-03-04T05:45:38;100745.22;;;7.43;56.70
15678;BME280;7939;50.814;6.368;2023-03-04T05:48:05;100745.22;;;7.43;56.56
15678;BME280;7939;50.814;6.368;2023-03-04T05:50:32;100741.81;;;7.43;56.90
15678;BME280;7939;50.814;6.368;2023-03-04T05:53:00;100741.81;;;7.43;57.00
15678;BME280;7939;50.814;6.368;2023-03-04T05:55:26;100748.44;;;7.38;56.54
15678;BME280;7939;50.814;6.368;2023-03-04T05:57:54;100753.66;;;7.42;57.39
15678;BME280;7939;50.814;6.368;2023-03-04T06:00:21;100762.16;;;7.43;57.13
15678;BME280;7939;50.814;6.368;2023-03-04T06:02:48;100754.53;;;7.43;57.31
15678;BME280;7939;50.814;6.368;2023-03-04T06:05:15;100756.25;;;7.44;56.96
15678;BME280;7939;50.814;6.368;2023-03-04T06:07:42;100753.69;;;7.44;56.39
15678;BME280;7939;50.814;6.368;2023-03-04T06:10:13;100754.59;;;7.46;56.77
15678;BME280;7939;50.814;6.368;2023-03-04T06:12:40;100757.16;;;7.46;57.37
15678;BME280;7939;50.814;6.368;2023-03-04T06:15:09;100754.59;;;7.46;56.72
15678;BME280;7939;50.814;6.368;2023-03-04T06:17:37;100758.81;;;7.45;56.92
15678;BME280;7939;50.814;6.368;2023-03-04T06:20:05;100756.28;;;7.45;56.64
15678;BME280;7939;50.814;6.368;2023-03-04T06:22:32;100753.78;;;7.47;56.59
15678;BME280;7939;50.814;6.368;2023-03-04T06:24:58;100759.72;;;7.47;56.30
15678;BME280;7939;50.814;6.368;2023-03-04T06:27:26;100767.34;;;7.47;56.89
15678;BME280;7939;50.814;6.368;2023-03-04T06:29:53;100763.94;;;7.47;56.78
15678;BME280;7939;50.814;6.368;2023-03-04T06:32:20;100768.22;;;7.48;57.13
15678;BME280;7939;50.814;6.368;2023-03-04T06:34:47;100769.13;;;7.50;57.46
15678;BME280;7939;50.814;6.368;2023-03-04T06:37:14;100773.38;;;7.49;56.29
15678;BME280;7939;50.814;6.368;2023-03-04T06:39:40;100769.97;;;7.49;56.83
15678;BME280;7939;50.814;6.368;2023-03-04T06:42:07;100770.00;;;7.50;56.27
15678;BME280;7939;50.814;6.368;2023-03-04T06:44:35;100772.50;;;7.49;57.38
15678;BME280;7939;50.814;6.368;2023-03-04T06:47:01;100771.69;;;7.50;57.24
15678;BME280;7939;50.814;6.368;2023-03-04T06:49:28;100771.69;;;7.50;56.66
15678;BME280;7939;50.814;6.368;2023-03-04T06:51:55;100775.94;;;7.51;57.51
15678;BME280;7939;50.814;6.368;2023-03-04T06:54:21;100778.53;;;7.52;56.39
15678;BME280;7939;50.814;6.368;2023-03-04T06:56:48;100776.81;;;7.51;56.73
15678;BME280;7939;50.814;6.368;2023-03-04T06:59:15;100781.88;;;7.51;57.09
15678;BME280;7939;50.814;6.368;2023-03-04T07:01:43;100779.38;;;7.53;56.26
15678;BME280;7939;50.814;6.368;2023-03-04T07:04:12;100777.69;;;7.53;57.05
15678;BME280;7939;50.814;6.368;2023-03-04T07:06:39;100780.22;;;7.52;57.24
15678;BME280;7939;50.814;6.368;2023-03-04T07:09:05;100778.53;;;7.52;56.72
15678;BME280;7939;50.814;6.368;2023-03-04T07:11:32;100793.03;;;7.55;56.86
15678;BME280;7939;50.814;6.368;2023-03-04T07:13:58;100786.19;;;7.54;56.85
15678;BME280;7939;50.814;6.368;2023-03-04T07:16:25;100796.44;;;7.55;57.49
15678;BME280;7939;50.814;6.368;2023-03-04T07:18:53;100798.97;;;7.55;57.00
15678;BME280;7939;50.814;6.368;2023-03-04T07:21:19;100795.56;;;7.55;57.50
15678;BME280;7939;50.814;6.368;2023-03-04T07:23:46;100799.78;;;7.54;56.88
15678;BME280;7939;50.814;6.368;2023-03-04T07:26:12;100796.47;;;7.57;56.99
15678;BME280;7939;50.814;6.368;2023-03-04T07:28:39;100799.00;;;7.57;56.78
15678;BME280;7939;50.814;6.368;2023-03-04T07:31:09;100804.97;;;7.57;56.95
15678;BME280;7939;50.814;6.368;2023-03-04T07:33:36;100799.88;;;7.57;57.59
15678;BME280;7939;50.814;6.368;2023-03-04T07:36:05;100799.00;;;7.57;57.13
15678;BME280;7939;50.814;6.368;2023-03-04T07:38:31;100799.88;;;7.57;57.53
15678;BME280;7939;50.814;6.368;2023-03-04T07:40:58;100804.97;;;7.57;57.60
15678;BME280;7939;50.814;6.368;2023-03-04T07:43:24;100802.41;;;7.57;57.46
15678;BME280;7939;50.814;6.368;2023-03-04T07:45:51;100809.22;;;7.58;56.29
15678;BME280;7939;50.814;6.368;2023-03-04T07:48:17;100809.22;;;7.58;56.98
15678;BME280;7939;50.814;6.368;2023-03-04T07:50:44;100811.78;;;7.60;57.48
15678;BME280;7939;50.814;6.368;2023-03-04T07:53:12;100813.47;;;7.60;56.89
15678;BME280;7939;50.814;6.368;2023-03-04T07:55:38;100820.25;;;7.59;56.62
15678;BME280;7939;50.814;6.368;2023-03-04T07:58:05;100818.56;;;7.60;57.40
15678;BME280;7939;50.814;6.368;2023-03-04T08:00:32;100812.69;;;7.61;56.47
15678;BME280;7939;50.814;6.368;2023-03-04T08:02:59;100811.88;;;7.62;57.60
15678;BME280;7939;50.814;6.368;2023-03-04T08:05:25;100809.31;;;7.62;56.36
15678;BME280;7939;50.814;6.368;2023-03-04T08:07:52;100806.72;;;7.60;57.61
15678;BME280;7939;50.814;6.368;2023-03-04T08:10:23;100811.03;;;7.63;56.69
15678;BME280;7939;50.814;6.368;2023-03-04T08:12:49;100815.34;;;7.65;56.48
15678;BME280;7939;50.814;6.368;2023-03-04T08:15:16;100812.75;;;7.64;57.16
15678;BME280;7939;50.814;6.368;2023-03-04T08:17:43;100808.53;;;7.64;57.82
15678;BME280;7939;50.814;6.368;2023-03-04T08:20:10;100817.13;;;7.68;57.68
15678;BME280;7939;50.814;6.368;2023-03-04T08:22:37;100816.19;;;7.66;56.87
15678;BME280;7939;50.814;6.368;2023-03-04T08:25:04;100815.38;;;7.67;57.70
15678;BME280;7939;50.814;6.368;2023-03-04T08:27:32;100824.75;;;7.68;56.96
15678;BME280;7939;50.814;6.368;2023-03-04T08:29:59;100822.09;;;7.65;57.88
15678;BME280;7939;50.814;6.368;2023-03-04T08:32:25;100825.63;;;7.68;57.84
15678;BME280;7939;50.814;6.368;2023-03-04T08:34:52;100831.56;;;7.69;56.93
15678;BME280;7939;50.814;6.368;2023-03-04T08:37:20;100829.91;;;7.71;56.77
15678;BME280;7939;50.814;6.368;2023-03-04T08:39:47;100829.91;;;7.71;57.11
15678;BME280;7939;50.814;6.368;2023-03-04T08:42:13;100835.00;;;7.71;57.89
15678;BME280;7939;50.814;6.368;2023-03-04T08:44:41;100834.97;;;7.69;57.37
15678;BME280;7939;50.814;6.368;2023-03-04T08:47:08;100834.13;;;7.69;57.47
15678;BME280;7939;50.814;6.368;2023-03-04T08:49:34;100842.63;;;7.71;57.27
15678;BME280;7939;50.814;6.368;2023-03-04T08:52:01;100838.41;;;7.71;57.24
15678;BME280;7939;50.814;6.368;2023-03-04T08:54:28;100841.88;;;7.73;58.32
15678;BME280;7939;50.814;6.368;2023-03-04T08:56:55;100839.34;;;7.73;57.67
15678;BME280;7939;50.814;6.368;2023-03-04T08:59:23;100839.28;;;7.72;58.61
15678;BME280;7939;50.814;6.368;2023-03-04T09:01:51;100833.34;;;7.73;58.36
15678;BME280;7939;50.814;6.368;2023-03-04T09:04:18;100841.13;;;7.77;57.37
15678;BME280;7939;50.814;6.368;2023-03-04T09:06:44;100832.63;;;7.77;58.20
15678;BME280;7939;50.814;6.368;2023-03-04T09:09:11;100841.13;;;7.77;58.24
15678;BME280;7939;50.814;6.368;2023-03-04T09:11:37;100839.50;;;7.79;57.42
15678;BME280;7939;50.814;6.368;2023-03-04T09:14:04;100831.88;;;7.79;58.41
15678;BME280;7939;50.814;6.368;2023-03-04T09:16:31;100827.69;;;7.81;57.81
15678;BME280;7939;50.814;6.368;2023-03-04T09:19:00;100834.50;;;7.82;57.77
15678;BME280;7939;50.814;6.368;2023-03-04T09:21:27;100835.28;;;7.80;58.43
15678;BME280;7939;50.814;6.368;2023-03-04T09:23:54;100827.72;;;7.83;58.71
15678;BME280;7939;50.814;6.368;2023-03-04T09:26:22;100832.91;;;7.86;58.18
15678;BME280;7939;50.814;6.368;2023-03-04T09:28:50;100829.44;;;7.84;58.06
15678;BME280;7939;50.814;6.368;2023-03-04T09:31:17;100826.84;;;7.82;58.98
15678;BME280;7939;50.814;6.368;2023-03-04T09:33:43;100828.63;;;7.85;58.62
15678;BME280;7939;50.814;6.368;2023-03-04T09:36:13;100832.09;;;7.87;58.78
15678;BME280;7939;50.814;6.368;2023-03-04T09:38:40;100828.69;;;7.87;57.83
15678;BME280;7939;50.814;6.368;2023-03-04T09:41:09;100826.94;;;7.85;58.51
15678;BME280;7939;50.814;6.368;2023-03-04T09:43:38;100828.75;;;7.90;58.85
15678;BME280;7939;50.814;6.368;2023-03-04T09:46:09;100831.28;;;7.90;58.17
15678;BME280;7939;50.814;6.368;2023-03-04T09:48:43;100827.00;;;7.87;59.02
15678;BME280;7939;50.814;6.368;2023-03-04T09:51:24;100819.38;;;7.87;58.25
15678;BME280;7939;50.814;6.368;2023-03-04T09:54:06;100818.53;;;7.88;58.32
15678;BME280;7939;50.814;6.368;2023-03-04T09:56:35;100816.91;;;7.92;58.78
15678;BME280;7939;50.814;6.368;2023-03-04T09:59:10;100820.34;;;7.92;58.09
15678;BME280;7939;50.814;6.368;2023-03-04T10:01:45;100819.53;;;7.93;58.59
15678;BME280;7939;50.814;6.368;2023-03-04T10:04:16;100811.91;;;7.93;59.91
15678;BME280;7939;50.814;6.368;2023-03-04T10:06:47;100812.78;;;7.95;58.89
15678;BME280;7939;50.814;6.368;2023-03-04T10:09:22;100812.00;;;7.98;58.58
15678;BME280;7939;50.814;6.368;2023-03-04T10:11:56;100815.47;;;8.00;59.75
15678;BME280;7939;50.814;6.368;2023-03-04T10:14:32;100812.09;;;8.01;58.89
15678;BME280;7939;50.814;6.368;2023-03-04T10:17:05;100819.72;;;8.01;59.92
15678;BME280;7939;50.814;6.368;2023-03-04T10:19:47;100817.22;;;8.02;59.34
15678;BME280;7939;50.814;6.368;2023-03-04T10:22:23;100808.81;;;8.05;60.02
15678;BME280;7939;50.814;6.368;2023-03-04T10:24:54;100817.25;;;8.04;60.16
15678;BME280;7939;50.814;6.368;2023-03-04T10:27:21;100811.38;;;8.05;59.56
15678;BME280;7939;50.814;6.368;2023-03-04T10:29:49;100812.34;;;8.10;59.03
15678;BME280;7939;50.814;6.368;2023-03-04T10:32:18;100804.75;;;8.11;58.54
15678;BME280;7939;50.814;6.368;2023-03-04T10:34:45;100808.03;;;8.07;59.20
15678;BME280;7939;50.814;6.368;2023-03-04T10:37:12;100808.94;;;8.09;59.03
15678;BME280;7939;50.814;6.368;2023-03-04T10:39:42;100797.84;;;8.07;59.37
15678;BME280;7939;50.814;6.368;2023-03-04T10:42:25;100799.56;;;8.08;58.59
15678;BME280;7939;50.814;6.368;2023-03-04T10:44:55;100798.84;;;8.13;58.54
15678;BME280;7939;50.814;6.368;2023-03-04T10:47:23;100794.59;;;8.13;58.55
15678;BME280;7939;50.814;6.368;2023-03-04T10:49:53;100795.66;;;8.21;58.78
15678;BME280;7939;50.814;6.368;2023-03-04T10:52:27;100804.16;;;8.22;59.36
15678;BME280;7939;50.814;6.368;2023-03-04T10:54:57;100799.88;;;8.21;59.23
15678;BME280;7939;50.814;6.368;2023-03-04T10:57:32;100797.44;;;8.24;59.32
15678;BME280;7939;50.814;6.368;2023-03-04T11:00:00;100795.66;;;8.21;59.09
15678;BME280;7939;50.814;6.368;2023-03-04T11:02:29;100800.75;;;8.21;58.19
15678;BME280;7939;50.814;6.368;2023-03-04T11:05:05;100796.63;;;8.25;58.89
15678;BME280;7939;50.814;6.368;2023-03-04T11:07:43;100789.84;;;8.25;58.57
15678;BME280;7939;50.814;6.368;2023-03-04T11:10:16;100786.50;;;8.28;59.03
15678;BME280;7939;50.814;6.368;2023-03-04T11:12:48;100783.97;;;8.29;58.98
15678;BME280;7939;50.814;6.368;2023-03-04T11:15:17;100782.34;;;8.31;59.10
15678;BME280;7939;50.814;6.368;2023-03-04T11:17:47;100774.72;;;8.31;58.36
15678;BME280;7939;50.814;6.368;2023-03-04T11:20:17;100783.28;;;8.35;58.92
15678;BME280;7939;50.814;6.368;2023-03-04T11:22:48;100780.00;;;8.37;58.85
15678;BME280;7939;50.814;6.368;2023-03-04T11:25:24;100779.19;;;8.40;58.46
15678;BME280;7939;50.814;6.368;2023-03-04T11:27:53;100775.06;;;8.45;58.53
15678;BME280;7939;50.814;6.368;2023-03-04T11:30:28;100774.28;;;8.48;59.17
15678;BME280;7939;50.814;6.368;2023-03-04T11:33:06;100766.72;;;8.51;58.75
15678;BME280;7939;50.814;6.368;2023-03-04T11:35:38;100761.69;;;8.54;58.36
15678;BME280;7939;50.814;6.368;2023-03-04T11:38:15;100762.63;;;8.57;58.44
15678;BME280;7939;50.814;6.368;2023-03-04T11:40:49;100763.47;;;8.56;58.81
15678;BME280;7939;50.814;6.368;2023-03-04T11:43:20;100758.47;;;8.61;58.40
15678;BME280;7939;50.814;6.368;2023-03-04T11:48:52;100755.16;;;8.65;59.10
15678;BME280;7939;50.814;6.368;2023-03-04T11:51:31;100753.50;;;8.67;57.97
15678;BME280;7939;50.814;6.368;2023-03-04T11:54:11;100753.44;;;8.62;58.69
15678;BME280;7939;50.814;6.368;2023-03-04T11:56:43;100756.03;;;8.65;57.94
15678;BME280;7939;50.814;6.368;2023-03-04T12:02:14;100745.88;;;8.67;58.49
15678;BME280;7939;50.814;6.368;2023-03-04T12:07:43;100743.41;;;8.70;57.74
15678;BME280;7939;50.814;6.368;2023-03-04T12:10:21;100728.09;;;8.69;58.34
15678;BME280;7939;50.814;6.368;2023-03-04T12:13:17;100733.22;;;8.70;57.66
15678;BME280;7939;50.814;6.368;2023-03-04T12:15:49;100726.44;;;8.71;58.37
15678;BME280;7939;50.814;6.368;2023-03-04T12:18:27;100726.44;;;8.71;58.63
15678;BME280;7939;50.814;6.368;2023-03-04T12:21:10;100720.47;;;8.70;58.67
15678;BME280;7939;50.814;6.368;2023-03-04T12:23:50;100723.81;;;8.68;58.51
15678;BME280;7939;50.814;6.368;2023-03-04T12:26:30;100720.44;;;8.69;57.90
15678;BME280;7939;50.814;6.368;2023-03-04T12:29:03;100718.72;;;8.68;57.70
15678;BME280;7939;50.814;6.368;2023-03-04T12:31:36;100712.81;;;8.69;58.33
15678;BME280;7939;50.814;6.368;2023-03-04T12:34:28;100703.47;;;8.69;58.58
15678;BME280;7939;50.814;6.368;2023-03-04T12:37:07;100705.22;;;8.72;58.67
15678;BME280;7939;50.814;6.368;2023-03-04T12:39:39;100701.81;;;8.71;58.52
15678;BME280;7939;50.814;6.368;2023-03-04T12:42:17;100699.28;;;8.73;58.07
15678;BME280;7939;50.814;6.368;2023-03-04T12:44:55;100695.09;;;8.75;58.41
15678;BME280;7939;50.814;6.368;2023-03-04T12:47:30;100688.31;;;8.75;59.17
15678;BME280;7939;50.814;6.368;2023-03-04T12:50:13;100691.72;;;8.76;58.00
15678;BME280;7939;50.814;6.368;2023-03-04T12:52:49;100675.59;;;8.77;58.71
15678;BME280;7939;50.814;6.368;2023-03-04T12:55:35;100680.69;;;8.77;59.02
15678;BME280;7939;50.814;6.368;2023-03-04T12:58:03;100676.47;;;8.79;58.99
15678;BME280;7939;50.814;6.368;2023-03-04T13:00:41;100681.63;;;8.80;58.69
15678;BME280;7939;50.814;6.368;2023-03-04T13:03:17;100674.00;;;8.82;58.31
15678;BME280;7939;50.814;6.368;2023-03-04T13:05:54;100673.19;;;8.83;58.15
15678;BME280;7939;50.814;6.368;2023-03-04T13:08:30;100673.22;;;8.86;58.32
15678;BME280;7939;50.814;6.368;2023-03-04T13:11:01;100664.78;;;8.87;58.20
15678;BME280;7939;50.814;6.368;2023-03-04T13:13:37;100666.47;;;8.86;58.50
15678;BME280;7939;50.814;6.368;2023-03-04T13:16:29;100662.25;;;8.88;58.22
15678;BME280;7939;50.814;6.368;2023-03-04T13:18:57;100666.50;;;8.88;58.95
15678;BME280;7939;50.814;6.368;2023-03-04T13:21:25;100663.13;;;8.89;58.28
15678;BME280;7939;50.814;6.368;2023-03-04T13:23:53;100658.00;;;8.87;58.83
15678;BME280;7939;50.814;6.368;2023-03-04T13:26:23;100658.00;;;8.87;57.81
15678;BME280;7939;50.814;6.368;2023-03-04T13:29:08;100658.00;;;8.87;58.30